sensor_id;sensor_type;location;lat;lon;timestamp;P1;durP1;ratioP1;P2;durP2;ratioP2
25169;SDS011;13129;48.012;10.352;2022-12-20T04:34:40;3.42;;;2.70;;
25169;SDS011;13129;48.012;10.352;2022-12-20T04:37:06;2.75;;;2.38;;
25169;SDS011;13129;48.012;10.352;2022-12-20T04:39:31;3.63;;;2.53;;
25169;SDS011;13129;48.012;10.352;2022-12-20T04:41:57;2.70;;;2.50;;
25169;SDS011;13129;48.012;10.352;2022-12-20T04:44:23;3.58;;;3.28;;
25169;SDS011;13129;48.012;10.352;2022-12-20T04:46:48;2.55;;;2.35;;
25169;SDS011;13129;48.012;10.352;2022-12-20T05:10:06;2.65;;;2.42;;
25169;SDS011;13129;48.012;10.352;2022-12-20T05:19:59;2.50;;;2.30;;
25169;SDS011;13129;48.012;10.352;2022-12-20T05:22:56;2.20;;;2.00;;
25169;SDS011;13129;48.012;10.352;2022-12-20T05:25:49;2.63;;;2.42;;
25169;SDS011;13129;48.012;10.352;2022-12-20T05:28:39;2.42;;;2.20;;
25169;SDS011;13129;48.012;10.352;2022-12-20T05:34:29;16.20;;;10.13;;
25169;SDS011;13129;48.012;10.352;2022-12-20T05:36:59;16.00;;;10.88;;
25169;SDS011;13129;48.012;10.352;2022-12-20T05:39:28;21.33;;;14.02;;
25169;SDS011;13129;48.012;10.352;2022-12-20T05:41:54;22.45;;;16.20;;
25169;SDS011;13129;48.012;10.352;2022-12-20T05:44:20;14.57;;;10.80;;
25169;SDS011;13129;48.012;10.352;2022-12-20T05:46:46;5.28;;;4.45;;
25169;SDS011;13129;48.012;10.352;2022-12-20T05:49:12;3.55;;;3.25;;
25169;SDS011;13129;48.012;10.352;2022-12-20T05:51:38;7.72;;;4.75;;
25169;SDS011;13129;48.012;10.352;2022-12-20T05:54:49;5.97;;;4.90;;
25169;SDS011;13129;48.012;10.352;2022-12-20T05:56:56;7.80;;;5.50;;
25169;SDS011;13129;48.012;10.352;2022-12-20T05:59:22;6.30;;;5.70;;
25169;SDS011;13129;48.012;10.352;2022-12-20T06:01:49;3.90;;;3.60;;
25169;SDS011;13129;48.012;10.352;2022-12-20T06:04:15;3.47;;;2.95;;
25169;SDS011;13129;48.012;10.352;2022-12-20T06:09:53;12.10;;;8.18;;
25169;SDS011;13129;48.012;10.352;2022-12-20T06:12:19;12.98;;;10.43;;
25169;SDS011;13129;48.012;10.352;2022-12-20T06:14:45;15.73;;;12.65;;
25169;SDS011;13129;48.012;10.352;2022-12-20T06:17:48;22.30;;;15.45;;
25169;SDS011;13129;48.012;10.352;2022-12-20T06:20:14;16.77;;;14.32;;
25169;SDS011;13129;48.012;10.352;2022-12-20T06:25:32;9.45;;;8.02;;
25169;SDS011;13129;48.012;10.352;2022-12-20T06:28:09;13.38;;;10.52;;
25169;SDS011;13129;48.012;10.352;2022-12-20T06:31:10;7.88;;;7.13;;
25169;SDS011;13129;48.012;10.352;2022-12-20T06:33:36;7.90;;;6.90;;
25169;SDS011;13129;48.012;10.352;2022-12-20T06:36:02;6.40;;;5.20;;
25169;SDS011;13129;48.012;10.352;2022-12-20T06:38:37;6.40;;;5.75;;
25169;SDS011;13129;48.012;10.352;2022-12-20T06:41:03;18.52;;;12.45;;
25169;SDS011;13129;48.012;10.352;2022-12-20T06:43:29;36.17;;;23.45;;
25169;SDS011;13129;48.012;10.352;2022-12-20T06:45:55;21.23;;;18.30;;
25169;SDS011;13129;48.012;10.352;2022-12-20T06:48:21;13.80;;;12.52;;
25169;SDS011;13129;48.012;10.352;2022-12-20T06:50:47;16.13;;;13.15;;
25169;SDS011;13129;48.012;10.352;2022-12-20T06:53:14;12.98;;;11.40;;
25169;SDS011;13129;48.012;10.352;2022-12-20T06:56:01;25.90;;;18.30;;
25169;SDS011;13129;48.012;10.352;2022-12-20T06:58:26;46.55;;;26.73;;
25169;SDS011;13129;48.012;10.352;2022-12-20T07:01:15;89.18;;;45.58;;
25169;SDS011;13129;48.012;10.352;2022-12-20T07:04:06;20.48;;;13.15;;
25169;SDS011;13129;48.012;10.352;2022-12-20T07:14:24;6.15;;;5.45;;
25169;SDS011;13129;48.012;10.352;2022-12-20T07:17:45;7.15;;;6.75;;
25169;SDS011;13129;48.012;10.352;2022-12-20T07:35:28;10.60;;;9.57;;
25169;SDS011;13129;48.012;10.352;2022-12-20T07:45:58;10.68;;;9.77;;
25169;SDS011;13129;48.012;10.352;2022-12-20T07:52:33;13.02;;;10.95;;
25169;SDS011;13129;48.012;10.352;2022-12-20T07:55:47;18.00;;;13.85;;
25169;SDS011;13129;48.012;10.352;2022-12-20T07:58:27;12.82;;;11.10;;
25169;SDS011;13129;48.012;10.352;2022-12-20T08:01:49;8.85;;;6.85;;
25169;SDS011;13129;48.012;10.352;2022-12-20T08:08:13;18.58;;;13.80;;
25169;SDS011;13129;48.012;10.352;2022-12-20T08:11:02;16.03;;;12.73;;
25169;SDS011;13129;48.012;10.352;2022-12-20T08:13:55;14.13;;;10.50;;
25169;SDS011;13129;48.012;10.352;2022-12-20T08:16:24;5.47;;;4.97;;
25169;SDS011;13129;48.012;10.352;2022-12-20T08:18:50;8.70;;;7.80;;
25169;SDS011;13129;48.012;10.352;2022-12-20T08:21:20;9.98;;;8.23;;
25169;SDS011;13129;48.012;10.352;2022-12-20T08:23:46;16.23;;;12.70;;
25169;SDS011;13129;48.012;10.352;2022-12-20T08:26:17;18.08;;;14.23;;
25169;SDS011;13129;48.012;10.352;2022-12-20T08:28:44;21.52;;;16.35;;
25169;SDS011;13129;48.012;10.352;2022-12-20T08:31:10;6.95;;;6.00;;
25169;SDS011;13129;48.012;10.352;2022-12-20T08:33:36;7.65;;;6.90;;
25169;SDS011;13129;48.012;10.352;2022-12-20T08:36:04;20.02;;;13.70;;
25169;SDS011;13129;48.012;10.352;2022-12-20T08:38:32;10.40;;;8.70;;
25169;SDS011;13129;48.012;10.352;2022-12-20T08:41:02;5.80;;;4.38;;
25169;SDS011;13129;48.012;10.352;2022-12-20T08:43:29;5.82;;;5.30;;
25169;SDS011;13129;48.012;10.352;2022-12-20T08:45:55;5.90;;;5.05;;
25169;SDS011;13129;48.012;10.352;2022-12-20T08:48:21;7.05;;;5.85;;
25169;SDS011;13129;48.012;10.352;2022-12-20T08:50:52;7.50;;;6.00;;
25169;SDS011;13129;48.012;10.352;2022-12-20T08:53:22;7.40;;;6.22;;
25169;SDS011;13129;48.012;10.352;2022-12-20T08:55:49;7.38;;;6.60;;
25169;SDS011;13129;48.012;10.352;2022-12-20T08:58:15;6.60;;;6.03;;
25169;SDS011;13129;48.012;10.352;2022-12-20T09:00:40;6.47;;;5.57;;
25169;SDS011;13129;48.012;10.352;2022-12-20T09:03:06;6.68;;;6.07;;
25169;SDS011;13129;48.012;10.352;2022-12-20T09:05:33;6.82;;;6.25;;
25169;SDS011;13129;48.012;10.352;2022-12-20T09:07:59;7.05;;;6.35;;
25169;SDS011;13129;48.012;10.352;2022-12-20T09:10:25;7.15;;;6.40;;
25169;SDS011;13129;48.012;10.352;2022-12-20T09:12:51;6.22;;;5.72;;
25169;SDS011;13129;48.012;10.352;2022-12-20T09:15:16;6.32;;;5.57;;
25169;SDS011;13129;48.012;10.352;2022-12-20T09:17:42;7.65;;;6.82;;
25169;SDS011;13129;48.012;10.352;2022-12-20T09:20:08;23.25;;;15.32;;
25169;SDS011;13129;48.012;10.352;2022-12-20T09:22:34;13.27;;;8.88;;
25169;SDS011;13129;48.012;10.352;2022-12-20T09:24:59;8.45;;;7.30;;
25169;SDS011;13129;48.012;10.352;2022-12-20T09:27:25;8.35;;;7.55;;
25169;SDS011;13129;48.012;10.352;2022-12-20T09:29:51;5.20;;;4.70;;
25169;SDS011;13129;48.012;10.352;2022-12-20T09:32:16;5.30;;;4.80;;
25169;SDS011;13129;48.012;10.352;2022-12-20T09:34:42;5.72;;;5.18;;
25169;SDS011;13129;48.012;10.352;2022-12-20T09:37:08;5.80;;;5.22;;
25169;SDS011;13129;48.012;10.352;2022-12-20T09:39:33;5.85;;;3.90;;
25169;SDS011;13129;48.012;10.352;2022-12-20T09:41:59;5.30;;;4.53;;
25169;SDS011;13129;48.012;10.352;2022-12-20T09:44:29;4.93;;;4.47;;
25169;SDS011;13129;48.012;10.352;2022-12-20T09:47:00;6.00;;;4.88;;
25169;SDS011;13129;48.012;10.352;2022-12-20T09:49:30;5.68;;;4.85;;
25169;SDS011;13129;48.012;10.352;2022-12-20T09:59:36;6.00;;;4.60;;
25169;SDS011;13129;48.012;10.352;2022-12-20T10:02:07;5.80;;;5.28;;
25169;SDS011;13129;48.012;10.352;2022-12-20T10:04:37;7.38;;;6.18;;
25169;SDS011;13129;48.012;10.352;2022-12-20T10:07:08;8.57;;;7.18;;
25169;SDS011;13129;48.012;10.352;2022-12-20T10:15:39;24.35;;;19.73;;
25169;SDS011;13129;48.012;10.352;2022-12-20T10:21:10;15.15;;;13.13;;
25169;SDS011;13129;48.012;10.352;2022-12-20T10:24:02;9.50;;;8.50;;
25169;SDS011;13129;48.012;10.352;2022-12-20T10:26:38;8.55;;;7.10;;
25169;SDS011;13129;48.012;10.352;2022-12-20T10:29:04;6.70;;;4.63;;
25169;SDS011;13129;48.012;10.352;2022-12-20T10:31:29;5.20;;;4.13;;
25169;SDS011;13129;48.012;10.352;2022-12-20T10:33:55;7.97;;;5.82;;
25169;SDS011;13129;48.012;10.352;2022-12-20T10:41:25;7.63;;;4.65;;
25169;SDS011;13129;48.012;10.352;2022-12-20T10:46:40;7.93;;;5.22;;
25169;SDS011;13129;48.012;10.352;2022-12-20T10:49:22;6.82;;;5.32;;
25169;SDS011;13129;48.012;10.352;2022-12-20T10:52:01;6.75;;;5.30;;
25169;SDS011;13129;48.012;10.352;2022-12-20T10:59:51;10.02;;;8.55;;
25169;SDS011;13129;48.012;10.352;2022-12-20T11:04:57;4.55;;;4.10;;
25169;SDS011;13129;48.012;10.352;2022-12-20T11:07:30;6.57;;;5.23;;
25169;SDS011;13129;48.012;10.352;2022-12-20T11:09:58;6.57;;;5.97;;
25169;SDS011;13129;48.012;10.352;2022-12-20T11:12:26;10.50;;;8.27;;
25169;SDS011;13129;48.012;10.352;2022-12-20T11:15:06;9.82;;;8.05;;
25169;SDS011;13129;48.012;10.352;2022-12-20T11:17:44;9.25;;;7.85;;
25169;SDS011;13129;48.012;10.352;2022-12-20T11:20:29;7.90;;;6.93;;
25169;SDS011;13129;48.012;10.352;2022-12-20T11:28:29;7.93;;;7.13;;
25169;SDS011;13129;48.012;10.352;2022-12-20T11:31:14;6.93;;;6.22;;
25169;SDS011;13129;48.012;10.352;2022-12-20T11:39:26;6.22;;;5.50;;
25169;SDS011;13129;48.012;10.352;2022-12-20T11:42:19;7.85;;;7.03;;
25169;SDS011;13129;48.012;10.352;2022-12-20T11:45:20;7.70;;;7.00;;
25169;SDS011;13129;48.012;10.352;2022-12-20T11:53:55;10.18;;;8.45;;
25169;SDS011;13129;48.012;10.352;2022-12-20T11:56:41;8.63;;;7.22;;
25169;SDS011;13129;48.012;10.352;2022-12-20T12:02:10;20.05;;;15.27;;
25169;SDS011;13129;48.012;10.352;2022-12-20T12:04:56;20.23;;;14.65;;
25169;SDS011;13129;48.012;10.352;2022-12-20T12:07:34;18.77;;;13.52;;
25169;SDS011;13129;48.012;10.352;2022-12-20T12:10:14;11.48;;;9.38;;
25169;SDS011;13129;48.012;10.352;2022-12-20T12:15:44;17.73;;;12.88;;
25169;SDS011;13129;48.012;10.352;2022-12-20T12:18:37;14.43;;;11.40;;
25169;SDS011;13129;48.012;10.352;2022-12-20T12:21:18;20.73;;;15.82;;
25169;SDS011;13129;48.012;10.352;2022-12-20T12:26:29;44.08;;;28.67;;
25169;SDS011;13129;48.012;10.352;2022-12-20T12:28:58;30.27;;;21.33;;
25169;SDS011;13129;48.012;10.352;2022-12-20T12:34:20;35.13;;;21.05;;
25169;SDS011;13129;48.012;10.352;2022-12-20T12:39:26;18.33;;;12.30;;
25169;SDS011;13129;48.012;10.352;2022-12-20T12:45:08;17.15;;;13.48;;
25169;SDS011;13129;48.012;10.352;2022-12-20T12:47:55;9.13;;;7.68;;
25169;SDS011;13129;48.012;10.352;2022-12-20T12:50:31;9.82;;;7.82;;
25169;SDS011;13129;48.012;10.352;2022-12-20T12:55:54;13.60;;;10.95;;
25169;SDS011;13129;48.012;10.352;2022-12-20T13:00:56;12.55;;;11.20;;
25169;SDS011;13129;48.012;10.352;2022-12-20T13:11:28;7.75;;;5.13;;
25169;SDS011;13129;48.012;10.352;2022-12-20T13:16:48;6.22;;;5.38;;
25169;SDS011;13129;48.012;10.352;2022-12-20T13:19:35;6.22;;;5.05;;
25169;SDS011;13129;48.012;10.352;2022-12-20T13:25:03;10.02;;;8.18;;
25169;SDS011;13129;48.012;10.352;2022-12-20T13:27:52;17.30;;;14.13;;
25169;SDS011;13129;48.012;10.352;2022-12-20T13:30:39;19.70;;;15.35;;
25169;SDS011;13129;48.012;10.352;2022-12-20T13:35:58;19.77;;;15.55;;
25169;SDS011;13129;48.012;10.352;2022-12-20T13:41:01;45.72;;;30.45;;
25169;SDS011;13129;48.012;10.352;2022-12-20T13:43:52;21.38;;;13.88;;
25169;SDS011;13129;48.012;10.352;2022-12-20T13:46:31;11.10;;;7.60;;
25169;SDS011;13129;48.012;10.352;2022-12-20T13:49:16;9.85;;;8.27;;
25169;SDS011;13129;48.012;10.352;2022-12-20T13:52:05;9.55;;;7.43;;
25169;SDS011;13129;48.012;10.352;2022-12-20T13:54:51;9.73;;;7.15;;
25169;SDS011;13129;48.012;10.352;2022-12-20T13:57:27;11.73;;;8.80;;
25169;SDS011;13129;48.012;10.352;2022-12-20T13:59:56;10.40;;;8.73;;
25169;SDS011;13129;48.012;10.352;2022-12-20T14:02:29;14.25;;;10.63;;
25169;SDS011;13129;48.012;10.352;2022-12-20T14:05:04;17.85;;;12.90;;
25169;SDS011;13129;48.012;10.352;2022-12-20T14:07:38;18.75;;;13.85;;
25169;SDS011;13129;48.012;10.352;2022-12-20T14:10:15;19.83;;;15.50;;
25169;SDS011;13129;48.012;10.352;2022-12-20T14:12:44;11.43;;;9.20;;
25169;SDS011;13129;48.012;10.352;2022-12-20T14:15:27;7.93;;;6.43;;
25169;SDS011;13129;48.012;10.352;2022-12-20T14:18:04;8.25;;;7.35;;
25169;SDS011;13129;48.012;10.352;2022-12-20T14:20:32;11.30;;;8.75;;
25169;SDS011;13129;48.012;10.352;2022-12-20T14:23:10;21.85;;;15.95;;
25169;SDS011;13129;48.012;10.352;2022-12-20T14:25:57;22.95;;;17.80;;
25169;SDS011;13129;48.012;10.352;2022-12-20T14:28:38;19.90;;;14.15;;
25169;SDS011;13129;48.012;10.352;2022-12-20T14:31:21;12.20;;;9.88;;
25169;SDS011;13129;48.012;10.352;2022-12-20T14:33:48;12.20;;;10.20;;
25169;SDS011;13129;48.012;10.352;2022-12-20T14:38:45;68.38;;;42.38;;
25169;SDS011;13129;48.012;10.352;2022-12-20T14:46:34;13.70;;;8.90;;
25169;SDS011;13129;48.012;10.352;2022-12-20T14:49:16;12.07;;;9.18;;
25169;SDS011;13129;48.012;10.352;2022-12-20T14:51:51;17.88;;;13.43;;
25169;SDS011;13129;48.012;10.352;2022-12-20T14:54:28;23.80;;;17.95;;
25169;SDS011;13129;48.012;10.352;2022-12-20T14:56:55;28.98;;;21.50;;
25169;SDS011;13129;48.012;10.352;2022-12-20T14:59:23;29.38;;;22.35;;
25169;SDS011;13129;48.012;10.352;2022-12-20T15:01:53;34.83;;;24.55;;
25169;SDS011;13129;48.012;10.352;2022-12-20T15:06:47;44.70;;;30.67;;
25169;SDS011;13129;48.012;10.352;2022-12-20T15:09:15;36.75;;;25.13;;
25169;SDS011;13129;48.012;10.352;2022-12-20T15:11:43;37.78;;;28.30;;
25169;SDS011;13129;48.012;10.352;2022-12-20T15:16:45;32.35;;;25.25;;
25169;SDS011;13129;48.012;10.352;2022-12-20T15:19:12;27.50;;;22.65;;
25169;SDS011;13129;48.012;10.352;2022-12-20T15:21:41;22.60;;;19.98;;
25169;SDS011;13129;48.012;10.352;2022-12-20T15:24:09;21.92;;;18.90;;
25169;SDS011;13129;48.012;10.352;2022-12-20T15:26:40;24.50;;;20.60;;
25169;SDS011;13129;48.012;10.352;2022-12-20T15:29:11;23.77;;;21.35;;
25169;SDS011;13129;48.012;10.352;2022-12-20T15:31:41;26.17;;;19.85;;
25169;SDS011;13129;48.012;10.352;2022-12-20T15:34:14;24.90;;;19.05;;
25169;SDS011;13129;48.012;10.352;2022-12-20T15:36:55;18.33;;;15.18;;
25169;SDS011;13129;48.012;10.352;2022-12-20T15:42:40;13.73;;;11.18;;
25169;SDS011;13129;48.012;10.352;2022-12-20T15:45:11;16.15;;;12.55;;
25169;SDS011;13129;48.012;10.352;2022-12-20T15:47:38;17.52;;;14.43;;
25169;SDS011;13129;48.012;10.352;2022-12-20T15:50:04;17.13;;;13.82;;
25169;SDS011;13129;48.012;10.352;2022-12-20T15:52:30;20.95;;;13.50;;
25169;SDS011;13129;48.012;10.352;2022-12-20T15:54:57;13.10;;;11.02;;
25169;SDS011;13129;48.012;10.352;2022-12-20T15:57:27;13.13;;;11.40;;
25169;SDS011;13129;48.012;10.352;2022-12-20T15:59:54;16.92;;;13.57;;
25169;SDS011;13129;48.012;10.352;2022-12-20T16:02:22;27.42;;;20.05;;
25169;SDS011;13129;48.012;10.352;2022-12-20T16:04:50;28.42;;;22.33;;
25169;SDS011;13129;48.012;10.352;2022-12-20T16:07:15;36.47;;;30.23;;
25169;SDS011;13129;48.012;10.352;2022-12-20T16:09:41;35.47;;;28.92;;
25169;SDS011;13129;48.012;10.352;2022-12-20T16:12:17;32.83;;;27.30;;
25169;SDS011;13129;48.012;10.352;2022-12-20T16:14:47;18.50;;;15.20;;
25169;SDS011;13129;48.012;10.352;2022-12-20T16:17:13;13.55;;;11.88;;
25169;SDS011;13129;48.012;10.352;2022-12-20T16:19:40;11.93;;;10.23;;
25169;SDS011;13129;48.012;10.352;2022-12-20T16:22:09;13.70;;;11.63;;
25169;SDS011;13129;48.012;10.352;2022-12-20T16:24:40;12.98;;;10.15;;
25169;SDS011;13129;48.012;10.352;2022-12-20T16:27:05;11.18;;;10.05;;
25169;SDS011;13129;48.012;10.352;2022-12-20T16:29:31;11.13;;;9.07;;
25169;SDS011;13129;48.012;10.352;2022-12-20T16:31:57;18.67;;;12.68;;
25169;SDS011;13129;48.012;10.352;2022-12-20T16:34:23;33.78;;;20.42;;
25169;SDS011;13129;48.012;10.352;2022-12-20T16:36:49;29.13;;;19.17;;
25169;SDS011;13129;48.012;10.352;2022-12-20T16:39:15;32.83;;;18.77;;
25169;SDS011;13129;48.012;10.352;2022-12-20T16:41:41;25.35;;;15.60;;
25169;SDS011;13129;48.012;10.352;2022-12-20T16:44:11;17.63;;;13.00;;
25169;SDS011;13129;48.012;10.352;2022-12-20T16:46:38;20.85;;;15.20;;
25169;SDS011;13129;48.012;10.352;2022-12-20T16:49:04;22.23;;;15.15;;
25169;SDS011;13129;48.012;10.352;2022-12-20T16:51:31;28.05;;;21.77;;
25169;SDS011;13129;48.012;10.352;2022-12-20T16:54:14;23.20;;;19.13;;
25169;SDS011;13129;48.012;10.352;2022-12-20T16:56:51;11.70;;;9.30;;
25169;SDS011;13129;48.012;10.352;2022-12-20T16:59:24;24.98;;;16.25;;
25169;SDS011;13129;48.012;10.352;2022-12-20T17:01:50;45.90;;;26.17;;
25169;SDS011;13129;48.012;10.352;2022-12-20T17:04:18;39.75;;;25.55;;
25169;SDS011;13129;48.012;10.352;2022-12-20T17:06:44;24.65;;;15.98;;
25169;SDS011;13129;48.012;10.352;2022-12-20T17:09:10;9.88;;;8.73;;
25169;SDS011;13129;48.012;10.352;2022-12-20T17:11:36;10.30;;;8.40;;
25169;SDS011;13129;48.012;10.352;2022-12-20T17:14:03;9.65;;;8.50;;
25169;SDS011;13129;48.012;10.352;2022-12-20T17:16:29;11.60;;;9.80;;
25169;SDS011;13129;48.012;10.352;2022-12-20T17:18:55;12.98;;;11.13;;
25169;SDS011;13129;48.012;10.352;2022-12-20T17:23:51;24.40;;;16.23;;
25169;SDS011;13129;48.012;10.352;2022-12-20T17:26:18;19.00;;;15.50;;
25169;SDS011;13129;48.012;10.352;2022-12-20T17:28:49;13.15;;;10.70;;
25169;SDS011;13129;48.012;10.352;2022-12-20T17:31:25;16.75;;;11.82;;
25169;SDS011;13129;48.012;10.352;2022-12-20T17:33:51;26.33;;;18.45;;
25169;SDS011;13129;48.012;10.352;2022-12-20T17:36:16;28.02;;;20.60;;
25169;SDS011;13129;48.012;10.352;2022-12-20T17:38:42;28.83;;;19.77;;
25169;SDS011;13129;48.012;10.352;2022-12-20T17:41:25;25.45;;;19.90;;
25169;SDS011;13129;48.012;10.352;2022-12-20T17:43:55;31.73;;;18.88;;
25169;SDS011;13129;48.012;10.352;2022-12-20T17:46:22;26.67;;;17.88;;
25169;SDS011;13129;48.012;10.352;2022-12-20T17:48:48;21.50;;;18.48;;
25169;SDS011;13129;48.012;10.352;2022-12-20T17:53:48;17.30;;;15.55;;
25169;SDS011;13129;48.012;10.352;2022-12-20T17:56:18;35.45;;;27.60;;
25169;SDS011;13129;48.012;10.352;2022-12-20T18:01:16;45.03;;;29.90;;
25169;SDS011;13129;48.012;10.352;2022-12-20T18:03:51;24.15;;;19.65;;
25169;SDS011;13129;48.012;10.352;2022-12-20T18:06:18;20.35;;;16.35;;
25169;SDS011;13129;48.012;10.352;2022-12-20T18:08:48;17.92;;;14.07;;
25169;SDS011;13129;48.012;10.352;2022-12-20T18:11:15;16.15;;;13.85;;
25169;SDS011;13129;48.012;10.352;2022-12-20T18:13:42;16.67;;;13.20;;
25169;SDS011;13129;48.012;10.352;2022-12-20T18:16:13;13.50;;;10.48;;
25169;SDS011;13129;48.012;10.352;2022-12-20T18:18:40;10.95;;;9.65;;
25169;SDS011;13129;48.012;10.352;2022-12-20T18:21:09;8.57;;;7.72;;
25169;SDS011;13129;48.012;10.352;2022-12-20T18:23:38;8.68;;;7.53;;
25169;SDS011;13129;48.012;10.352;2022-12-20T18:26:09;8.18;;;7.38;;
25169;SDS011;13129;48.012;10.352;2022-12-20T18:28:39;13.80;;;10.18;;
25169;SDS011;13129;48.012;10.352;2022-12-20T18:31:07;12.30;;;10.70;;
25169;SDS011;13129;48.012;10.352;2022-12-20T18:33:34;27.67;;;21.23;;
25169;SDS011;13129;48.012;10.352;2022-12-20T18:36:05;14.38;;;12.07;;
25169;SDS011;13129;48.012;10.352;2022-12-20T18:38:32;16.88;;;13.57;;
25169;SDS011;13129;48.012;10.352;2022-12-20T18:40:59;14.75;;;10.88;;
25169;SDS011;13129;48.012;10.352;2022-12-20T18:43:26;13.73;;;11.77;;
25169;SDS011;13129;48.012;10.352;2022-12-20T18:45:54;16.00;;;14.20;;
25169;SDS011;13129;48.012;10.352;2022-12-20T18:48:22;24.80;;;18.25;;
25169;SDS011;13129;48.012;10.352;2022-12-20T18:50:48;20.27;;;15.80;;
25169;SDS011;13129;48.012;10.352;2022-12-20T18:53:14;13.13;;;11.43;;
25169;SDS011;13129;48.012;10.352;2022-12-20T18:55:40;11.27;;;10.18;;
25169;SDS011;13129;48.012;10.352;2022-12-20T18:58:05;10.30;;;9.20;;
25169;SDS011;13129;48.012;10.352;2022-12-20T19:00:31;10.27;;;9.27;;
25169;SDS011;13129;48.012;10.352;2022-12-20T19:03:00;11.25;;;9.93;;
25169;SDS011;13129;48.012;10.352;2022-12-20T19:05:27;12.48;;;8.95;;
25169;SDS011;13129;48.012;10.352;2022-12-20T19:07:56;11.03;;;7.93;;
25169;SDS011;13129;48.012;10.352;2022-12-20T19:10:21;9.63;;;8.73;;
25169;SDS011;13129;48.012;10.352;2022-12-20T19:12:48;10.38;;;9.32;;
25169;SDS011;13129;48.012;10.352;2022-12-20T19:15:13;10.45;;;9.35;;
25169;SDS011;13129;48.012;10.352;2022-12-20T19:17:39;10.40;;;9.32;;
25169;SDS011;13129;48.012;10.352;2022-12-20T19:20:05;10.00;;;9.00;;
25169;SDS011;13129;48.012;10.352;2022-12-20T19:22:31;13.68;;;10.30;;
25169;SDS011;13129;48.012;10.352;2022-12-20T19:24:57;13.55;;;11.10;;
25169;SDS011;13129;48.012;10.352;2022-12-20T19:27:23;13.13;;;11.32;;
25169;SDS011;13129;48.012;10.352;2022-12-20T19:29:48;9.93;;;8.93;;
25169;SDS011;13129;48.012;10.352;2022-12-20T19:32:14;9.93;;;8.90;;
25169;SDS011;13129;48.012;10.352;2022-12-20T19:34:39;10.13;;;9.10;;
25169;SDS011;13129;48.012;10.352;2022-12-20T19:37:05;11.85;;;10.35;;
25169;SDS011;13129;48.012;10.352;2022-12-20T19:39:31;9.68;;;8.82;;
25169;SDS011;13129;48.012;10.352;2022-12-20T19:41:56;10.38;;;9.38;;
25169;SDS011;13129;48.012;10.352;2022-12-20T19:44:23;13.00;;;11.23;;
25169;SDS011;13129;48.012;10.352;2022-12-20T19:46:49;11.50;;;10.30;;
25169;SDS011;13129;48.012;10.352;2022-12-20T19:49:15;12.27;;;10.23;;
25169;SDS011;13129;48.012;10.352;2022-12-20T19:51:40;9.98;;;8.63;;
25169;SDS011;13129;48.012;10.352;2022-12-20T19:54:07;10.68;;;9.25;;
25169;SDS011;13129;48.012;10.352;2022-12-20T19:56:33;16.17;;;10.82;;
25169;SDS011;13129;48.012;10.352;2022-12-20T19:59:00;14.15;;;11.73;;
25169;SDS011;13129;48.012;10.352;2022-12-20T20:01:26;11.68;;;10.38;;
25169;SDS011;13129;48.012;10.352;2022-12-20T20:03:53;13.52;;;10.73;;
25169;SDS011;13129;48.012;10.352;2022-12-20T20:06:20;16.17;;;12.50;;
25169;SDS011;13129;48.012;10.352;2022-12-20T20:08:46;11.45;;;8.90;;
25169;SDS011;13129;48.012;10.352;2022-12-20T20:11:14;10.27;;;8.20;;
25169;SDS011;13129;48.012;10.352;2022-12-20T20:13:41;14.88;;;10.55;;
25169;SDS011;13129;48.012;10.352;2022-12-20T20:16:06;53.53;;;30.63;;
25169;SDS011;13129;48.012;10.352;2022-12-20T20:18:34;43.80;;;25.55;;
25169;SDS011;13129;48.012;10.352;2022-12-20T20:21:09;16.27;;;12.38;;
25169;SDS011;13129;48.012;10.352;2022-12-20T20:23:37;14.63;;;12.95;;
25169;SDS011;13129;48.012;10.352;2022-12-20T20:26:05;20.75;;;15.48;;
25169;SDS011;13129;48.012;10.352;2022-12-20T20:28:35;25.52;;;18.95;;
25169;SDS011;13129;48.012;10.352;2022-12-20T20:31:02;18.02;;;15.10;;
25169;SDS011;13129;48.012;10.352;2022-12-20T20:33:29;12.52;;;10.85;;
25169;SDS011;13129;48.012;10.352;2022-12-20T20:35:57;15.50;;;11.52;;
25169;SDS011;13129;48.012;10.352;2022-12-20T20:38:24;12.32;;;11.02;;
25169;SDS011;13129;48.012;10.352;2022-12-20T20:40:51;13.40;;;11.38;;
25169;SDS011;13129;48.012;10.352;2022-12-20T20:43:16;12.63;;;10.93;;
25169;SDS011;13129;48.012;10.352;2022-12-20T20:45:43;11.25;;;9.48;;
25169;SDS011;13129;48.012;10.352;2022-12-20T20:48:09;13.45;;;10.85;;
25169;SDS011;13129;48.012;10.352;2022-12-20T20:50:35;13.77;;;11.50;;
25169;SDS011;13129;48.012;10.352;2022-12-20T20:53:01;11.38;;;9.35;;
25169;SDS011;13129;48.012;10.352;2022-12-20T20:55:28;11.15;;;9.52;;
25169;SDS011;13129;48.012;10.352;2022-12-20T20:57:54;12.23;;;10.88;;
25169;SDS011;13129;48.012;10.352;2022-12-20T21:00:20;12.10;;;9.38;;
25169;SDS011;13129;48.012;10.352;2022-12-20T21:02:45;9.93;;;8.25;;
25169;SDS011;13129;48.012;10.352;2022-12-20T21:05:11;9.45;;;7.38;;
25169;SDS011;13129;48.012;10.352;2022-12-20T21:07:37;8.90;;;7.38;;
25169;SDS011;13129;48.012;10.352;2022-12-20T21:10:03;10.68;;;9.32;;
25169;SDS011;13129;48.012;10.352;2022-12-20T21:12:31;12.50;;;10.55;;
25169;SDS011;13129;48.012;10.352;2022-12-20T21:14:57;11.93;;;10.27;;
25169;SDS011;13129;48.012;10.352;2022-12-20T21:17:22;12.13;;;10.85;;
25169;SDS011;13129;48.012;10.352;2022-12-20T21:19:52;13.48;;;10.35;;
25169;SDS011;13129;48.012;10.352;2022-12-20T21:22:17;11.77;;;9.60;;
25169;SDS011;13129;48.012;10.352;2022-12-20T21:24:44;11.95;;;10.63;;
25169;SDS011;13129;48.012;10.352;2022-12-20T21:27:10;22.45;;;15.60;;
25169;SDS011;13129;48.012;10.352;2022-12-20T21:29:36;19.20;;;14.18;;
25169;SDS011;13129;48.012;10.352;2022-12-20T21:32:02;19.10;;;13.52;;
25169;SDS011;13129;48.012;10.352;2022-12-20T21:34:29;14.77;;;12.48;;
25169;SDS011;13129;48.012;10.352;2022-12-20T21:36:56;15.88;;;13.10;;
25169;SDS011;13129;48.012;10.352;2022-12-20T21:39:22;18.58;;;13.85;;
25169;SDS011;13129;48.012;10.352;2022-12-20T21:41:48;17.70;;;13.95;;
25169;SDS011;13129;48.012;10.352;2022-12-20T21:44:15;18.00;;;13.00;;
25169;SDS011;13129;48.012;10.352;2022-12-20T21:46:41;15.63;;;13.00;;
25169;SDS011;13129;48.012;10.352;2022-12-20T21:49:06;16.77;;;13.90;;
25169;SDS011;13129;48.012;10.352;2022-12-20T21:51:32;16.30;;;13.70;;
25169;SDS011;13129;48.012;10.352;2022-12-20T21:53:59;18.20;;;15.15;;
25169;SDS011;13129;48.012;10.352;2022-12-20T21:56:27;17.73;;;14.43;;
25169;SDS011;13129;48.012;10.352;2022-12-20T21:58:54;17.42;;;14.43;;
25169;SDS011;13129;48.012;10.352;2022-12-20T22:01:21;16.35;;;14.40;;
25169;SDS011;13129;48.012;10.352;2022-12-20T22:03:51;16.63;;;14.05;;
25169;SDS011;13129;48.012;10.352;2022-12-20T22:06:18;15.10;;;12.93;;
25169;SDS011;13129;48.012;10.352;2022-12-20T22:08:44;14.55;;;13.02;;
25169;SDS011;13129;48.012;10.352;2022-12-20T22:11:12;16.15;;;13.10;;
25169;SDS011;13129;48.012;10.352;2022-12-20T22:13:39;13.70;;;12.30;;
25169;SDS011;13129;48.012;10.352;2022-12-20T22:16:09;16.00;;;12.50;;
25169;SDS011;13129;48.012;10.352;2022-12-20T22:18:35;14.70;;;13.30;;
25169;SDS011;13129;48.012;10.352;2022-12-20T22:21:02;15.85;;;13.18;;
25169;SDS011;13129;48.012;10.352;2022-12-20T22:23:28;15.88;;;14.23;;